Time;durP1;ratioP1;P1;durP2;ratioP2;P2;SDS_P1;SDS_P2;PMS_P1;PMS_P2;Temp;Humidity;BMP_temperature;BMP_pressure;BME280_temperature;BME280_humidity;BME280_pressure;Samples;Min_cycle;Max_cycle;Signal;HPM_P1;HPM_P2
2022/08/12 00:43:00;;;;;;;3.27;2.50;;;26.10;65.90;;;;;;1930986;73;21489;-79
2022/08/12 00:49:02;;;;;;;2.45;2.10;;;26.00;66.30;;;;;;1924082;73;21085;-79
2022/08/12 00:52:06;;;;;;;3.08;2.22;;;26.00;66.40;;;;;;1940361;73;21121;-79
2022/08/12 00:55:00;;;;;;;3.87;2.60;;;26.00;66.80;;;;;;1933680;73;21185;-79
2022/08/12 00:57:52;;;;;;;2.75;2.30;;;26.00;67.30;;;;;;1917856;73;21145;-79
2022/08/12 01:00:47;;;;;;;3.25;2.72;;;26.00;67.30;;;;;;1916768;73;21600;-81
2022/08/12 01:12:47;;;;;;;3.52;2.58;;;25.90;67.00;;;;;;1887614;75;21120;-81
2022/08/12 01:15:40;;;;;;;4.87;2.58;;;25.90;67.40;;;;;;1917520;75;21090;-81
2022/08/12 01:21:16;;;;;;;3.42;2.70;;;25.70;68.80;;;;;;1932287;72;22350;-77
2022/08/12 01:24:16;;;;;;;2.98;2.67;;;25.50;70.50;;;;;;1904062;75;21031;-76
2022/08/12 01:27:10;;;;;;;3.70;3.30;;;25.40;70.80;;;;;;1893376;75;21169;-76
2022/08/12 01:30:05;;;;;;;5.55;5.00;;;25.40;70.00;;;;;;1908441;75;21184;-76
2022/08/12 01:32:58;;;;;;;8.15;6.55;;;25.40;68.60;;;;;;1890329;75;21062;-76
2022/08/12 01:35:53;;;;;;;7.37;5.15;;;25.50;68.50;;;;;;1902747;75;21626;-77
2022/08/12 01:38:47;;;;;;;10.78;7.75;;;25.40;68.30;;;;;;1912386;75;21458;-80
2022/08/12 01:41:41;;;;;;;13.50;7.90;;;25.50;68.60;;;;;;1882399;75;21182;-79
2022/08/12 01:47:17;;;;;;;7.95;5.92;;;25.30;68.40;;;;;;1934840;72;22593;-80
2022/08/12 01:50:19;;;;;;;8.48;6.28;;;25.30;68.60;;;;;;1885387;75;21070;-80
2022/08/12 01:53:14;;;;;;;6.05;3.45;;;25.20;68.60;;;;;;1882817;75;21173;-78
2022/08/12 01:56:05;;;;;;;3.95;2.92;;;25.20;69.50;;;;;;1886519;75;21223;-78
2022/08/12 02:02:12;;;;;;;4.45;3.27;;;25.00;70.40;;;;;;1904901;75;21154;-77
2022/08/12 02:14:27;;;;;;;4.22;3.50;;;24.90;70.90;;;;;;1944383;72;22122;-76
2022/08/12 02:17:38;;;;;;;4.62;3.60;;;24.90;70.60;;;;;;1888029;75;21122;-76
2022/08/12 02:20:35;;;;;;;4.55;3.45;;;24.90;71.10;;;;;;1914532;75;21117;-75
2022/08/12 02:23:28;;;;;;;6.85;3.52;;;24.80;71.80;;;;;;1886055;75;21200;-75
2022/08/12 02:26:21;;;;;;;3.42;2.87;;;24.70;74.80;;;;;;1903756;75;21118;-75
2022/08/12 02:29:14;;;;;;;3.55;2.60;;;24.50;75.40;;;;;;1908842;75;21047;-77
2022/08/12 02:32:08;;;;;;;5.03;3.37;;;24.40;75.30;;;;;;1884763;75;21201;-77
2022/08/12 02:34:59;;;;;;;3.85;3.30;;;24.40;74.30;;;;;;1892320;75;21075;-77
2022/08/12 02:37:53;;;;;;;4.87;3.50;;;24.40;75.80;;;;;;1897122;75;21185;-77
2022/08/12 02:40:46;;;;;;;5.05;3.65;;;24.30;75.30;;;;;;1914883;75;21580;-77
2022/08/12 02:49:00;;;;;;;4.50;3.30;;;24.40;74.60;;;;;;1943971;72;22166;-77
2022/08/12 02:51:51;;;;;;;4.15;3.00;;;24.40;74.60;;;;;;1917599;73;21522;-76
2022/08/12 02:54:45;;;;;;;5.28;3.33;;;24.30;76.50;;;;;;1919383;73;21159;-77
2022/08/12 02:57:37;;;;;;;6.10;2.98;;;24.20;76.50;;;;;;1931683;73;21063;-76
2022/08/12 03:00:29;;;;;;;3.75;3.15;;;24.10;79.50;;;;;;1927445;73;21172;-77
2022/08/12 03:03:21;;;;;;;4.85;2.85;;;23.90;79.10;;;;;;1919864;73;21161;-76
2022/08/12 03:06:17;;;;;;;5.03;3.33;;;24.00;79.50;;;;;;1937506;73;21051;-77
2022/08/12 03:09:11;;;;;;;3.60;2.90;;;24.10;78.60;;;;;;1923229;73;21198;-77
2022/08/12 03:12:08;;;;;;;5.50;3.22;;;24.10;78.20;;;;;;1917501;75;21111;-77
2022/08/12 03:15:01;;;;;;;3.15;2.85;;;24.20;77.80;;;;;;1884145;75;21522;-81
2022/08/12 03:17:56;;;;;;;4.15;3.02;;;24.20;77.50;;;;;;1917459;75;21098;-83
2022/08/12 03:20:48;;;;;;;5.97;2.80;;;24.30;77.50;;;;;;1941777;73;21209;-83
2022/08/12 03:26:24;;;;;;;2.70;2.50;;;24.30;77.00;;;;;;1927591;72;22569;-83
2022/08/12 03:29:19;;;;;;;3.17;2.87;;;24.30;77.10;;;;;;1893262;75;21576;-84
2022/08/12 03:32:11;;;;;;;5.53;2.95;;;24.40;77.10;;;;;;1898436;75;21113;-84
2022/08/12 03:35:06;;;;;;;4.62;2.70;;;24.30;77.10;;;;;;1901714;75;21079;-80
2022/08/12 03:38:00;;;;;;;2.67;2.47;;;24.20;77.20;;;;;;1884771;75;21059;-81
2022/08/12 04:02:40;;;;;;;4.03;3.05;;;23.80;80.80;;;;;;1888749;75;21189;-77
2022/08/12 04:05:33;;;;;;;4.55;3.17;;;23.70;81.00;;;;;;1911422;75;21094;-76
2022/08/12 04:16:58;;;;;;;4.17;2.87;;;23.60;81.90;;;;;;1942498;72;22188;-81
2022/08/12 04:19:50;;;;;;;5.65;3.20;;;23.60;81.60;;;;;;1914139;75;21550;-81
2022/08/12 04:22:42;;;;;;;5.45;3.00;;;23.70;81.70;;;;;;1890245;75;21070;-78
2022/08/12 04:25:38;;;;;;;3.60;3.10;;;23.70;81.60;;;;;;1898072;75;21128;-77
2022/08/12 04:31:11;;;;;;;4.75;3.50;;;23.60;82.30;;;;;;1921816;72;22172;-77
2022/08/12 04:34:03;;;;;;;4.10;3.10;;;23.60;82.50;;;;;;1898723;75;21166;-77
2022/08/12 04:36:55;;;;;;;7.08;3.08;;;23.60;82.50;;;;;;1905363;75;21101;-77
2022/08/12 04:39:48;;;;;;;3.60;3.27;;;23.60;82.70;;;;;;1904984;75;21054;-77
2022/08/12 04:42:39;;;;;;;3.25;2.95;;;23.60;82.70;;;;;;1892495;75;21134;-77
2022/08/12 04:45:33;;;;;;;4.05;3.00;;;23.60;82.70;;;;;;1914021;75;21062;-77
2022/08/12 04:51:04;;;;;;;2.95;2.72;;;23.60;82.50;;;;;;1936780;72;22194;-77
2022/08/12 04:53:56;;;;;;;3.27;2.98;;;23.60;82.40;;;;;;1884316;75;21110;-79
2022/08/12 04:56:47;;;;;;;3.95;2.80;;;23.60;82.50;;;;;;1897331;75;21055;-79
2022/08/12 04:59:40;;;;;;;6.45;2.85;;;23.60;82.80;;;;;;1895963;75;21653;-79
2022/08/12 05:02:33;;;;;;;7.15;3.20;;;23.60;82.80;;;;;;1884595;75;21070;-79
2022/08/12 05:05:25;;;;;;;5.22;3.40;;;23.60;82.90;;;;;;1891139;75;21209;-79
2022/08/12 05:11:00;;;;;;;5.33;3.20;;;23.60;83.00;;;;;;1946939;72;22747;-79
2022/08/12 05:13:53;;;;;;;3.75;3.22;;;23.70;82.90;;;;;;1903970;75;21059;-81
2022/08/12 05:16:45;;;;;;;3.60;3.00;;;23.70;82.70;;;;;;1903015;75;21094;-78
2022/08/12 05:19:36;;;;;;;5.70;3.27;;;23.70;82.60;;;;;;1902848;75;21523;-81
2022/08/12 05:22:29;;;;;;;4.25;3.05;;;23.80;82.90;;;;;;1905715;75;21078;-81
2022/08/12 05:25:22;;;;;;;8.75;3.20;;;23.70;83.50;;;;;;1903277;75;21042;-82
2022/08/12 05:28:15;;;;;;;3.62;3.02;;;23.60;85.10;;;;;;1891283;75;21122;-82
2022/08/12 05:31:07;;;;;;;3.75;2.80;;;23.40;85.60;;;;;;1905272;75;21140;-81
2022/08/12 05:33:59;;;;;;;6.05;3.33;;;23.20;86.30;;;;;;1898256;75;21197;-80
2022/08/12 05:36:50;;;;;;;5.72;3.15;;;23.20;86.20;;;;;;1900212;75;21557;-81
2022/08/12 05:42:25;;;;;;;6.62;3.35;;;23.20;86.90;;;;;;1933994;72;22271;-80
2022/08/12 05:45:19;;;;;;;6.20;3.30;;;23.30;87.10;;;;;;1904781;75;21081;-82
2022/08/12 05:48:10;;;;;;;4.58;3.20;;;23.40;86.80;;;;;;1902140;75;21059;-81
2022/08/12 05:51:01;;;;;;;4.33;3.35;;;23.40;86.50;;;;;;1902408;75;21117;-80
2022/08/12 05:53:55;;;;;;;4.90;3.70;;;23.50;86.60;;;;;;1901775;75;21206;-81
2022/08/12 05:56:48;;;;;;;3.47;3.17;;;23.40;87.40;;;;;;1909724;75;21110;-81
2022/08/12 05:59:40;;;;;;;5.08;3.30;;;23.50;87.70;;;;;;1907283;75;21158;-79
2022/08/12 06:02:33;;;;;;;5.95;3.27;;;23.70;87.80;;;;;;1902749;75;21050;-80
2022/08/12 06:08:06;;;;;;;4.35;3.35;;;23.80;87.90;;;;;;1949479;72;22168;-79
2022/08/12 06:10:57;;;;;;;3.75;3.30;;;23.90;88.00;;;;;;1929133;73;21609;-79
2022/08/12 06:13:50;;;;;;;6.80;3.20;;;23.90;88.00;;;;;;1934116;73;21116;-79
2022/08/12 06:16:45;;;;;;;5.87;3.55;;;24.00;88.00;;;;;;1926593;73;21541;-81
2022/08/12 06:19:36;;;;;;;4.08;3.05;;;24.10;88.00;;;;;;1922565;73;21605;-79
2022/08/12 06:22:29;;;;;;;5.92;3.40;;;24.10;87.60;;;;;;1927242;73;21058;-83
2022/08/12 06:25:21;;;;;;;4.17;3.17;;;24.20;87.40;;;;;;1933293;73;21148;-81
2022/08/12 06:28:18;;;;;;;4.30;2.90;;;24.20;87.30;;;;;;1917308;75;21095;-82
2022/08/12 06:31:14;;;;;;;4.22;3.20;;;24.30;87.50;;;;;;1939016;73;21099;-84
2022/08/12 06:34:04;;;;;;;5.10;3.25;;;24.40;86.90;;;;;;1932525;73;21122;-84
2022/08/12 06:36:57;;;;;;;3.37;3.08;;;24.40;86.20;;;;;;1935788;73;21074;-79
2022/08/12 06:39:49;;;;;;;5.17;3.50;;;24.50;86.00;;;;;;1934662;73;21077;-82
2022/08/12 06:42:51;;;;;;;3.67;3.10;;;24.50;85.70;;;;;;1917618;73;21184;-81
2022/08/12 06:45:48;;;;;;;3.65;3.22;;;24.50;85.60;;;;;;1918157;73;21080;-82
2022/08/12 06:51:18;;;;;;;3.65;3.22;;;24.60;85.70;;;;;;1940526;72;22172;-82
2022/08/12 06:54:10;;;;;;;5.62;3.12;;;24.60;85.40;;;;;;1885521;75;21105;-82
2022/08/12 06:57:01;;;;;;;3.95;3.37;;;24.70;85.00;;;;;;1895186;75;21055;-81
2022/08/12 06:59:54;;;;;;;3.60;3.30;;;24.70;84.50;;;;;;1891549;75;21168;-81
2022/08/12 07:02:46;;;;;;;6.72;3.60;;;24.80;84.20;;;;;;1872341;75;21135;-82
2022/08/12 07:05:37;;;;;;;5.40;3.33;;;24.80;84.00;;;;;;1901548;75;21122;-82
2022/08/12 07:11:14;;;;;;;4.65;3.10;;;24.90;84.30;;;;;;1938172;72;22171;-83
2022/08/12 07:14:06;;;;;;;4.20;3.37;;;24.90;84.30;;;;;;1885392;75;21623;-85
2022/08/12 07:17:01;;;;;;;4.40;3.20;;;25.00;84.10;;;;;;1876847;75;21114;-82
2022/08/12 07:19:54;;;;;;;6.78;3.10;;;25.10;84.00;;;;;;1889001;75;21160;-83
2022/08/12 07:22:48;;;;;;;6.95;3.17;;;25.10;83.90;;;;;;1893842;75;21116;-81
2022/08/12 07:25:40;;;;;;;3.95;3.08;;;25.10;83.40;;;;;;1896035;75;21067;-82
2022/08/12 07:31:12;;;;;;;5.08;4.00;;;25.30;83.40;;;;;;1943558;72;22244;-81
2022/08/12 07:34:05;;;;;;;3.85;3.45;;;25.40;83.70;;;;;;1900846;74;21054;-81
2022/08/12 07:36:59;;;;;;;6.00;3.52;;;25.40;83.10;;;;;;1893604;75;21086;-75
2022/08/12 07:39:51;;;;;;;4.37;3.40;;;25.50;83.20;;;;;;1898957;75;21205;-78
2022/08/12 07:42:44;;;;;;;4.05;3.40;;;25.40;83.00;;;;;;1894734;75;21124;-75
2022/08/12 07:45:35;;;;;;;3.30;3.00;;;25.50;82.60;;;;;;1903000;75;21063;-75
2022/08/12 07:56:23;;;;;;;7.80;3.62;;;25.70;81.40;;;;;;1951814;72;22153;-75
2022/08/12 07:59:14;;;;;;;5.17;3.37;;;25.70;80.40;;;;;;1926464;73;21109;-74
2022/08/12 08:02:07;;;;;;;3.60;3.30;;;25.80;80.20;;;;;;1917236;75;21046;-74
2022/08/12 08:04:59;;;;;;;3.70;3.40;;;25.80;79.90;;;;;;1917351;73;21140;-74
2022/08/12 08:07:52;;;;;;;5.28;3.12;;;25.90;79.90;;;;;;1917710;73;21062;-74
2022/08/12 08:10:44;;;;;;;6.90;3.70;;;26.00;79.90;;;;;;1922570;73;21109;-74
2022/08/12 08:13:39;;;;;;;3.62;3.30;;;26.10;80.00;;;;;;1917407;73;21339;-74
2022/08/12 08:16:28;;;;;;;5.00;2.98;;;26.20;79.60;;;;;;1934345;73;21055;-75
2022/08/12 08:19:22;;;;;;;3.83;3.05;;;26.30;79.00;;;;;;1919452;73;21060;-74
2022/08/12 08:22:12;;;;;;;4.25;3.60;;;26.40;79.00;;;;;;1918912;73;21054;-74
2022/08/12 08:27:45;;;;;;;5.33;3.30;;;26.40;78.40;;;;;;1929555;72;22573;-81
2022/08/12 08:30:53;;;;;;;3.55;3.10;;;26.50;78.10;;;;;;1904092;75;21055;-77
